sensor_id;sensor_type;location;lat;lon;timestamp;temperature;humidity
34768;DHT22;21755;43.608;1.236;2023-07-24T00:00:19;24.10;89.40
34768;DHT22;21755;43.608;1.236;2023-07-24T00:02:45;24.00;75.80
34768;DHT22;21755;43.608;1.236;2023-07-24T00:05:11;23.90;74.20
34768;DHT22;21755;43.608;1.236;2023-07-24T00:07:37;23.80;63.90
34768;DHT22;21755;43.608;1.236;2023-07-24T00:10:03;23.70;66.90
34768;DHT22;21755;43.608;1.236;2023-07-24T00:12:29;23.80;69.20
34768;DHT22;21755;43.608;1.236;2023-07-24T00:14:55;23.60;63.70
34768;DHT22;21755;43.608;1.236;2023-07-24T00:17:21;23.60;71.50
34768;DHT22;21755;43.608;1.236;2023-07-24T00:19:47;23.50;81.50
34768;DHT22;21755;43.608;1.236;2023-07-24T00:22:13;23.60;66.90
34768;DHT22;21755;43.608;1.236;2023-07-24T00:24:39;23.50;68.50
34768;DHT22;21755;43.608;1.236;2023-07-24T00:27:05;23.50;55.20
34768;DHT22;21755;43.608;1.236;2023-07-24T00:29:31;23.40;38.80
34768;DHT22;21755;43.608;1.236;2023-07-24T00:31:57;23.30;57.20
34768;DHT22;21755;43.608;1.236;2023-07-24T00:34:23;23.30;51.30
34768;DHT22;21755;43.608;1.236;2023-07-24T00:36:49;23.10;51.20
34768;DHT22;21755;43.608;1.236;2023-07-24T00:39:15;23.10;56.30
34768;DHT22;21755;43.608;1.236;2023-07-24T00:41:42;22.90;56.90
34768;DHT22;21755;43.608;1.236;2023-07-24T00:44:08;22.80;62.40
34768;DHT22;21755;43.608;1.236;2023-07-24T00:46:35;22.70;67.30
34768;DHT22;21755;43.608;1.236;2023-07-24T00:49:02;22.60;70.50
34768;DHT22;21755;43.608;1.236;2023-07-24T00:51:30;22.50;78.80
34768;DHT22;21755;43.608;1.236;2023-07-24T00:54:01;22.40;74.90
34768;DHT22;21755;43.608;1.236;2023-07-24T00:56:28;22.40;72.30
34768;DHT22;21755;43.608;1.236;2023-07-24T00:58:56;22.40;77.00
34768;DHT22;21755;43.608;1.236;2023-07-24T01:01:23;22.30;75.80
34768;DHT22;21755;43.608;1.236;2023-07-24T01:03:49;22.30;80.50
34768;DHT22;21755;43.608;1.236;2023-07-24T01:06:15;22.20;73.80
34768;DHT22;21755;43.608;1.236;2023-07-24T01:08:41;22.10;79.10
34768;DHT22;21755;43.608;1.236;2023-07-24T01:11:16;22.10;73.20
34768;DHT22;21755;43.608;1.236;2023-07-24T01:16:38;21.90;84.00
34768;DHT22;21755;43.608;1.236;2023-07-24T01:27:44;21.60;88.10
34768;DHT22;21755;43.608;1.236;2023-07-24T01:30:13;21.60;92.40
34768;DHT22;21755;43.608;1.236;2023-07-24T01:32:39;21.50;95.60
34768;DHT22;21755;43.608;1.236;2023-07-24T01:35:06;21.40;95.80
34768;DHT22;21755;43.608;1.236;2023-07-24T01:37:32;21.40;99.40
34768;DHT22;21755;43.608;1.236;2023-07-24T01:40:00;21.30;99.90
34768;DHT22;21755;43.608;1.236;2023-07-24T01:42:26;21.20;99.90
34768;DHT22;21755;43.608;1.236;2023-07-24T01:44:54;21.10;99.90
34768;DHT22;21755;43.608;1.236;2023-07-24T01:47:20;21.10;99.90
34768;DHT22;21755;43.608;1.236;2023-07-24T01:49:46;21.10;99.90
34768;DHT22;21755;43.608;1.236;2023-07-24T01:52:12;21.10;99.90
34768;DHT22;21755;43.608;1.236;2023-07-24T01:54:38;21.00;99.90
34768;DHT22;21755;43.608;1.236;2023-07-24T01:57:05;21.00;99.90
34768;DHT22;21755;43.608;1.236;2023-07-24T01:59:31;20.90;99.90
34768;DHT22;21755;43.608;1.236;2023-07-24T02:01:57;20.90;99.90
34768;DHT22;21755;43.608;1.236;2023-07-24T02:04:23;20.80;99.90
34768;DHT22;21755;43.608;1.236;2023-07-24T02:06:49;20.80;99.90
34768;DHT22;21755;43.608;1.236;2023-07-24T02:09:17;20.80;99.90
34768;DHT22;21755;43.608;1.236;2023-07-24T02:11:43;20.80;99.90
34768;DHT22;21755;43.608;1.236;2023-07-24T02:14:11;20.80;99.90
34768;DHT22;21755;43.608;1.236;2023-07-24T02:16:37;20.90;99.90
34768;DHT22;21755;43.608;1.236;2023-07-24T02:19:03;21.10;99.90
34768;DHT22;21755;43.608;1.236;2023-07-24T02:21:29;21.20;99.90
34768;DHT22;21755;43.608;1.236;2023-07-24T02:23:54;21.30;99.90
34768;DHT22;21755;43.608;1.236;2023-07-24T02:26:20;21.30;99.90
34768;DHT22;21755;43.608;1.236;2023-07-24T02:28:46;21.10;99.90
34768;DHT22;21755;43.608;1.236;2023-07-24T02:31:12;20.90;99.90
34768;DHT22;21755;43.608;1.236;2023-07-24T02:33:38;20.70;99.90
34768;DHT22;21755;43.608;1.236;2023-07-24T02:36:04;20.60;99.90
34768;DHT22;21755;43.608;1.236;2023-07-24T02:38:30;20.50;99.90
34768;DHT22;21755;43.608;1.236;2023-07-24T02:40:56;20.50;99.90
34768;DHT22;21755;43.608;1.236;2023-07-24T02:43:22;20.50;99.90
34768;DHT22;21755;43.608;1.236;2023-07-24T02:45:48;20.40;99.90
34768;DHT22;21755;43.608;1.236;2023-07-24T02:48:14;20.40;99.90
34768;DHT22;21755;43.608;1.236;2023-07-24T02:50:40;20.30;99.90
34768;DHT22;21755;43.608;1.236;2023-07-24T02:53:06;20.30;99.90
34768;DHT22;21755;43.608;1.236;2023-07-24T02:55:32;20.40;99.90
34768;DHT22;21755;43.608;1.236;2023-07-24T02:57:58;20.40;99.90
34768;DHT22;21755;43.608;1.236;2023-07-24T03:00:24;20.30;99.90
34768;DHT22;21755;43.608;1.236;2023-07-24T03:02:52;20.20;99.90
34768;DHT22;21755;43.608;1.236;2023-07-24T03:05:18;20.30;99.90
34768;DHT22;21755;43.608;1.236;2023-07-24T03:07:44;20.20;99.90
34768;DHT22;21755;43.608;1.236;2023-07-24T03:10:10;20.10;99.70
34768;DHT22;21755;43.608;1.236;2023-07-24T03:12:35;20.20;99.90
34768;DHT22;21755;43.608;1.236;2023-07-24T03:15:01;20.10;99.10
34768;DHT22;21755;43.608;1.236;2023-07-24T03:17:27;20.10;99.10
34768;DHT22;21755;43.608;1.236;2023-07-24T03:19:54;20.10;98.80
34768;DHT22;21755;43.608;1.236;2023-07-24T03:22:20;20.10;99.90
34768;DHT22;21755;43.608;1.236;2023-07-24T03:24:46;20.20;97.70
34768;DHT22;21755;43.608;1.236;2023-07-24T03:27:12;20.10;94.00
34768;DHT22;21755;43.608;1.236;2023-07-24T03:29:38;20.10;98.20
34768;DHT22;21755;43.608;1.236;2023-07-24T03:32:07;20.20;94.60
34768;DHT22;21755;43.608;1.236;2023-07-24T03:34:33;20.20;96.30
34768;DHT22;21755;43.608;1.236;2023-07-24T03:36:59;20.20;97.70
34768;DHT22;21755;43.608;1.236;2023-07-24T03:39:24;20.20;95.20
34768;DHT22;21755;43.608;1.236;2023-07-24T03:41:50;20.20;95.10
34768;DHT22;21755;43.608;1.236;2023-07-24T03:44:16;20.20;97.90
34768;DHT22;21755;43.608;1.236;2023-07-24T03:46:42;20.10;95.80
34768;DHT22;21755;43.608;1.236;2023-07-24T03:49:08;20.10;95.80
34768;DHT22;21755;43.608;1.236;2023-07-24T03:51:34;20.10;95.50
34768;DHT22;21755;43.608;1.236;2023-07-24T03:54:00;20.00;89.20
34768;DHT22;21755;43.608;1.236;2023-07-24T03:56:26;20.00;94.80
34768;DHT22;21755;43.608;1.236;2023-07-24T03:58:52;20.00;98.00
34768;DHT22;21755;43.608;1.236;2023-07-24T04:01:19;20.20;92.70
34768;DHT22;21755;43.608;1.236;2023-07-24T04:03:45;20.30;94.10
34768;DHT22;21755;43.608;1.236;2023-07-24T04:06:11;20.30;91.00
34768;DHT22;21755;43.608;1.236;2023-07-24T04:08:37;20.40;95.00
34768;DHT22;21755;43.608;1.236;2023-07-24T04:11:02;20.50;90.10
34768;DHT22;21755;43.608;1.236;2023-07-24T04:13:30;20.60;90.80
34768;DHT22;21755;43.608;1.236;2023-07-24T04:15:56;20.70;93.50
34768;DHT22;21755;43.608;1.236;2023-07-24T04:18:23;20.70;91.20
34768;DHT22;21755;43.608;1.236;2023-07-24T04:20:49;20.80;91.10
34768;DHT22;21755;43.608;1.236;2023-07-24T04:23:15;20.80;91.90
34768;DHT22;21755;43.608;1.236;2023-07-24T04:25:41;20.80;81.40
34768;DHT22;21755;43.608;1.236;2023-07-24T04:28:06;20.60;90.90
34768;DHT22;21755;43.608;1.236;2023-07-24T04:30:33;20.60;88.60
34768;DHT22;21755;43.608;1.236;2023-07-24T04:32:58;20.70;95.80
34768;DHT22;21755;43.608;1.236;2023-07-24T04:35:26;20.70;75.20
34768;DHT22;21755;43.608;1.236;2023-07-24T04:37:53;20.60;81.40
34768;DHT22;21755;43.608;1.236;2023-07-24T04:40:18;20.60;91.30
34768;DHT22;21755;43.608;1.236;2023-07-24T04:42:44;20.60;79.90
34768;DHT22;21755;43.608;1.236;2023-07-24T04:45:10;20.70;94.50
34768;DHT22;21755;43.608;1.236;2023-07-24T04:47:36;20.60;86.90
34768;DHT22;21755;43.608;1.236;2023-07-24T04:50:04;20.70;84.00
34768;DHT22;21755;43.608;1.236;2023-07-24T04:52:30;20.70;91.00
34768;DHT22;21755;43.608;1.236;2023-07-24T04:54:56;20.80;92.30
34768;DHT22;21755;43.608;1.236;2023-07-24T04:57:22;20.60;73.50
34768;DHT22;21755;43.608;1.236;2023-07-24T04:59:48;20.70;87.80
34768;DHT22;21755;43.608;1.236;2023-07-24T05:02:14;20.70;82.20
34768;DHT22;21755;43.608;1.236;2023-07-24T05:04:40;20.60;75.60
34768;DHT22;21755;43.608;1.236;2023-07-24T05:07:07;20.30;86.40
34768;DHT22;21755;43.608;1.236;2023-07-24T05:09:33;20.60;94.20
34768;DHT22;21755;43.608;1.236;2023-07-24T05:11:59;20.60;92.80
34768;DHT22;21755;43.608;1.236;2023-07-24T05:14:24;20.70;90.30
34768;DHT22;21755;43.608;1.236;2023-07-24T05:16:50;20.80;90.90
34768;DHT22;21755;43.608;1.236;2023-07-24T05:19:16;20.80;74.30
34768;DHT22;21755;43.608;1.236;2023-07-24T05:21:42;20.90;86.10
34768;DHT22;21755;43.608;1.236;2023-07-24T05:24:08;20.80;77.00
34768;DHT22;21755;43.608;1.236;2023-07-24T05:26:34;20.70;89.40
34768;DHT22;21755;43.608;1.236;2023-07-24T05:29:00;20.80;90.60
34768;DHT22;21755;43.608;1.236;2023-07-24T05:31:26;20.70;87.90
34768;DHT22;21755;43.608;1.236;2023-07-24T05:33:52;20.80;87.00
34768;DHT22;21755;43.608;1.236;2023-07-24T05:36:18;20.80;82.40
34768;DHT22;21755;43.608;1.236;2023-07-24T05:38:44;21.00;91.00
34768;DHT22;21755;43.608;1.236;2023-07-24T05:41:10;21.40;84.90
34768;DHT22;21755;43.608;1.236;2023-07-24T05:43:36;21.20;80.20
34768;DHT22;21755;43.608;1.236;2023-07-24T05:46:01;21.40;50.40
34768;DHT22;21755;43.608;1.236;2023-07-24T05:48:27;21.30;67.70
34768;DHT22;21755;43.608;1.236;2023-07-24T05:50:53;21.40;60.70
34768;DHT22;21755;43.608;1.236;2023-07-24T05:53:19;21.70;41.30
34768;DHT22;21755;43.608;1.236;2023-07-24T05:55:45;21.50;50.20
34768;DHT22;21755;43.608;1.236;2023-07-24T05:58:11;21.40;55.50
34768;DHT22;21755;43.608;1.236;2023-07-24T06:00:37;21.30;59.10
34768;DHT22;21755;43.608;1.236;2023-07-24T06:03:03;21.30;64.30
34768;DHT22;21755;43.608;1.236;2023-07-24T06:05:29;21.60;46.80
34768;DHT22;21755;43.608;1.236;2023-07-24T06:07:55;21.40;59.30
34768;DHT22;21755;43.608;1.236;2023-07-24T06:10:21;21.40;43.60
34768;DHT22;21755;43.608;1.236;2023-07-24T06:12:47;21.60;55.30
34768;DHT22;21755;43.608;1.236;2023-07-24T06:15:13;21.70;42.50
34768;DHT22;21755;43.608;1.236;2023-07-24T06:17:44;21.60;45.50
34768;DHT22;21755;43.608;1.236;2023-07-24T06:20:10;21.60;50.60
34768;DHT22;21755;43.608;1.236;2023-07-24T06:22:36;21.40;46.90
34768;DHT22;21755;43.608;1.236;2023-07-24T06:25:02;21.20;55.70
34768;DHT22;21755;43.608;1.236;2023-07-24T06:27:28;21.20;63.10
34768;DHT22;21755;43.608;1.236;2023-07-24T06:29:54;21.10;48.80
34768;DHT22;21755;43.608;1.236;2023-07-24T06:32:20;21.10;67.30
34768;DHT22;21755;43.608;1.236;2023-07-24T06:34:46;21.10;66.30
34768;DHT22;21755;43.608;1.236;2023-07-24T06:37:12;21.10;60.20
34768;DHT22;21755;43.608;1.236;2023-07-24T06:39:38;21.10;58.20
34768;DHT22;21755;43.608;1.236;2023-07-24T06:42:04;21.20;69.50
34768;DHT22;21755;43.608;1.236;2023-07-24T06:44:30;21.20;58.30
34768;DHT22;21755;43.608;1.236;2023-07-24T06:46:56;21.30;61.80
34768;DHT22;21755;43.608;1.236;2023-07-24T06:49:22;21.30;58.30
34768;DHT22;21755;43.608;1.236;2023-07-24T06:51:48;21.20;55.90
34768;DHT22;21755;43.608;1.236;2023-07-24T06:54:14;21.30;64.30
34768;DHT22;21755;43.608;1.236;2023-07-24T06:56:40;21.20;56.50
34768;DHT22;21755;43.608;1.236;2023-07-24T06:59:06;21.40;56.80
34768;DHT22;21755;43.608;1.236;2023-07-24T07:01:32;21.60;46.20
34768;DHT22;21755;43.608;1.236;2023-07-24T07:03:58;21.40;37.30
34768;DHT22;21755;43.608;1.236;2023-07-24T07:06:24;21.40;50.50
34768;DHT22;21755;43.608;1.236;2023-07-24T07:08:51;21.30;47.80
34768;DHT22;21755;43.608;1.236;2023-07-24T07:11:17;21.20;59.90
34768;DHT22;21755;43.608;1.236;2023-07-24T07:13:43;21.20;64.70
34768;DHT22;21755;43.608;1.236;2023-07-24T07:16:09;21.20;54.40
34768;DHT22;21755;43.608;1.236;2023-07-24T07:18:35;21.10;55.80
34768;DHT22;21755;43.608;1.236;2023-07-24T07:21:01;21.10;65.60
34768;DHT22;21755;43.608;1.236;2023-07-24T07:23:27;21.20;55.60
34768;DHT22;21755;43.608;1.236;2023-07-24T07:25:53;21.20;54.00
34768;DHT22;21755;43.608;1.236;2023-07-24T07:28:19;21.10;50.50
34768;DHT22;21755;43.608;1.236;2023-07-24T07:30:45;21.30;57.60
34768;DHT22;21755;43.608;1.236;2023-07-24T07:33:11;21.40;54.50
34768;DHT22;21755;43.608;1.236;2023-07-24T07:35:37;21.60;55.30
34768;DHT22;21755;43.608;1.236;2023-07-24T07:38:03;21.40;36.10
34768;DHT22;21755;43.608;1.236;2023-07-24T07:40:29;21.40;43.40
34768;DHT22;21755;43.608;1.236;2023-07-24T07:42:56;21.60;55.00
34768;DHT22;21755;43.608;1.236;2023-07-24T07:45:23;21.70;38.20
34768;DHT22;21755;43.608;1.236;2023-07-24T07:47:49;21.70;35.50
34768;DHT22;21755;43.608;1.236;2023-07-24T07:50:15;21.70;48.30
34768;DHT22;21755;43.608;1.236;2023-07-24T07:52:41;21.70;41.00
34768;DHT22;21755;43.608;1.236;2023-07-24T07:55:08;21.70;36.20
34768;DHT22;21755;43.608;1.236;2023-07-24T07:57:37;21.70;37.60
34768;DHT22;21755;43.608;1.236;2023-07-24T08:00:04;21.80;41.70
34768;DHT22;21755;43.608;1.236;2023-07-24T08:02:31;21.70;27.10
34768;DHT22;21755;43.608;1.236;2023-07-24T08:04:59;21.70;20.40
34768;DHT22;21755;43.608;1.236;2023-07-24T08:07:25;21.80;37.60
34768;DHT22;21755;43.608;1.236;2023-07-24T08:09:51;21.80;32.20
34768;DHT22;21755;43.608;1.236;2023-07-24T08:12:17;21.80;20.10
34768;DHT22;21755;43.608;1.236;2023-07-24T08:14:43;21.80;9.20
34768;DHT22;21755;43.608;1.236;2023-07-24T08:17:09;21.80;1.00
34768;DHT22;21755;43.608;1.236;2023-07-24T08:19:34;22.10;29.00
34768;DHT22;21755;43.608;1.236;2023-07-24T08:22:00;22.30;1.50
34768;DHT22;21755;43.608;1.236;2023-07-24T08:24:26;22.30;1.00
34768;DHT22;21755;43.608;1.236;2023-07-24T08:26:52;22.30;1.00
34768;DHT22;21755;43.608;1.236;2023-07-24T08:29:18;22.40;1.00
34768;DHT22;21755;43.608;1.236;2023-07-24T08:31:44;22.40;1.00
34768;DHT22;21755;43.608;1.236;2023-07-24T08:34:10;22.60;1.00
34768;DHT22;21755;43.608;1.236;2023-07-24T08:36:36;22.70;1.00
34768;DHT22;21755;43.608;1.236;2023-07-24T08:39:03;22.80;1.00
34768;DHT22;21755;43.608;1.236;2023-07-24T08:41:29;22.90;1.00
34768;DHT22;21755;43.608;1.236;2023-07-24T08:43:56;22.80;1.00
34768;DHT22;21755;43.608;1.236;2023-07-24T08:46:22;22.90;1.00
34768;DHT22;21755;43.608;1.236;2023-07-24T08:48:49;22.90;1.00
34768;DHT22;21755;43.608;1.236;2023-07-24T08:51:16;23.00;1.00
34768;DHT22;21755;43.608;1.236;2023-07-24T08:53:44;23.00;1.00
34768;DHT22;21755;43.608;1.236;2023-07-24T08:56:12;23.00;1.00
34768;DHT22;21755;43.608;1.236;2023-07-24T08:58:38;23.00;1.00
34768;DHT22;21755;43.608;1.236;2023-07-24T09:01:08;23.10;1.00
34768;DHT22;21755;43.608;1.236;2023-07-24T09:03:35;23.20;1.00
34768;DHT22;21755;43.608;1.236;2023-07-24T09:06:02;23.20;1.00
34768;DHT22;21755;43.608;1.236;2023-07-24T09:08:33;23.30;1.00
34768;DHT22;21755;43.608;1.236;2023-07-24T09:11:00;23.20;99.90
34768;DHT22;21755;43.608;1.236;2023-07-24T09:13:27;23.20;1.00
34768;DHT22;21755;43.608;1.236;2023-07-24T09:15:53;23.30;99.90
34768;DHT22;21755;43.608;1.236;2023-07-24T09:18:21;23.20;99.90
34768;DHT22;21755;43.608;1.236;2023-07-24T09:20:47;23.20;99.90
34768;DHT22;21755;43.608;1.236;2023-07-24T09:23:14;23.20;99.90
34768;DHT22;21755;43.608;1.236;2023-07-24T09:25:42;23.10;99.90
34768;DHT22;21755;43.608;1.236;2023-07-24T09:28:12;23.20;1.00
34768;DHT22;21755;43.608;1.236;2023-07-24T09:30:39;23.20;99.90
34768;DHT22;21755;43.608;1.236;2023-07-24T09:33:06;23.20;99.90
34768;DHT22;21755;43.608;1.236;2023-07-24T09:35:32;23.20;1.00
34768;DHT22;21755;43.608;1.236;2023-07-24T09:38:08;23.20;99.90
34768;DHT22;21755;43.608;1.236;2023-07-24T09:40:42;23.30;1.00
34768;DHT22;21755;43.608;1.236;2023-07-24T09:43:22;23.30;99.90
34768;DHT22;21755;43.608;1.236;2023-07-24T09:45:50;23.30;99.90
34768;DHT22;21755;43.608;1.236;2023-07-24T09:48:17;23.10;99.90
34768;DHT22;21755;43.608;1.236;2023-07-24T09:50:48;23.10;1.00
34768;DHT22;21755;43.608;1.236;2023-07-24T09:53:44;22.90;1.00
34768;DHT22;21755;43.608;1.236;2023-07-24T09:56:14;22.90;1.00
34768;DHT22;21755;43.608;1.236;2023-07-24T09:58:50;23.00;1.00
34768;DHT22;21755;43.608;1.236;2023-07-24T10:01:20;23.00;1.00
34768;DHT22;21755;43.608;1.236;2023-07-24T10:03:48;23.00;1.00
34768;DHT22;21755;43.608;1.236;2023-07-24T10:06:18;23.00;1.00
34768;DHT22;21755;43.608;1.236;2023-07-24T10:08:45;23.00;99.90
34768;DHT22;21755;43.608;1.236;2023-07-24T10:11:13;23.00;1.00
34768;DHT22;21755;43.608;1.236;2023-07-24T10:13:40;23.00;1.00
34768;DHT22;21755;43.608;1.236;2023-07-24T10:16:07;23.00;1.00
34768;DHT22;21755;43.608;1.236;2023-07-24T10:18:34;22.90;1.00
34768;DHT22;21755;43.608;1.236;2023-07-24T10:21:05;22.90;1.00
34768;DHT22;21755;43.608;1.236;2023-07-24T10:23:34;23.00;1.00
34768;DHT22;21755;43.608;1.236;2023-07-24T10:26:04;23.10;1.00
34768;DHT22;21755;43.608;1.236;2023-07-24T10:28:40;23.20;99.90
34768;DHT22;21755;43.608;1.236;2023-07-24T10:31:21;23.20;1.00
34768;DHT22;21755;43.608;1.236;2023-07-24T10:33:47;23.40;99.90
34768;DHT22;21755;43.608;1.236;2023-07-24T10:36:18;23.40;99.90
34768;DHT22;21755;43.608;1.236;2023-07-24T10:38:46;23.30;99.90
34768;DHT22;21755;43.608;1.236;2023-07-24T10:41:12;23.40;99.90
34768;DHT22;21755;43.608;1.236;2023-07-24T10:43:45;23.50;99.90
34768;DHT22;21755;43.608;1.236;2023-07-24T10:46:12;23.50;99.90
34768;DHT22;21755;43.608;1.236;2023-07-24T10:48:42;23.60;99.90
34768;DHT22;21755;43.608;1.236;2023-07-24T10:51:09;23.60;99.90
34768;DHT22;21755;43.608;1.236;2023-07-24T10:53:36;23.90;99.90
34768;DHT22;21755;43.608;1.236;2023-07-24T10:56:04;24.00;99.90
34768;DHT22;21755;43.608;1.236;2023-07-24T10:58:31;24.10;99.90
34768;DHT22;21755;43.608;1.236;2023-07-24T11:00:57;24.30;99.90
34768;DHT22;21755;43.608;1.236;2023-07-24T11:03:25;24.40;99.90
34768;DHT22;21755;43.608;1.236;2023-07-24T11:05:51;24.40;84.20
34768;DHT22;21755;43.608;1.236;2023-07-24T11:08:20;24.40;99.90
34768;DHT22;21755;43.608;1.236;2023-07-24T11:10:47;24.30;99.90
34768;DHT22;21755;43.608;1.236;2023-07-24T11:13:14;24.10;99.90
34768;DHT22;21755;43.608;1.236;2023-07-24T11:15:40;24.10;99.90
34768;DHT22;21755;43.608;1.236;2023-07-24T11:18:06;24.20;99.90
34768;DHT22;21755;43.608;1.236;2023-07-24T11:20:52;24.30;99.90
34768;DHT22;21755;43.608;1.236;2023-07-24T11:23:19;24.40;99.90
34768;DHT22;21755;43.608;1.236;2023-07-24T11:25:46;24.40;99.90
34768;DHT22;21755;43.608;1.236;2023-07-24T11:28:14;24.30;99.90
34768;DHT22;21755;43.608;1.236;2023-07-24T11:30:40;24.30;30.80
34768;DHT22;21755;43.608;1.236;2023-07-24T11:33:09;24.30;99.90
34768;DHT22;21755;43.608;1.236;2023-07-24T11:35:35;24.40;99.90
34768;DHT22;21755;43.608;1.236;2023-07-24T11:38:05;24.50;1.00
34768;DHT22;21755;43.608;1.236;2023-07-24T11:40:36;24.40;1.00
34768;DHT22;21755;43.608;1.236;2023-07-24T11:43:03;24.50;4.70
34768;DHT22;21755;43.608;1.236;2023-07-24T11:45:30;24.60;1.00
34768;DHT22;21755;43.608;1.236;2023-07-24T11:47:56;24.50;1.00
34768;DHT22;21755;43.608;1.236;2023-07-24T11:50:23;24.60;1.00
34768;DHT22;21755;43.608;1.236;2023-07-24T11:52:51;24.60;99.90
34768;DHT22;21755;43.608;1.236;2023-07-24T11:55:19;24.70;93.50
34768;DHT22;21755;43.608;1.236;2023-07-24T11:57:58;24.70;99.90
34768;DHT22;21755;43.608;1.236;2023-07-24T12:00:24;24.70;1.00
34768;DHT22;21755;43.608;1.236;2023-07-24T12:02:51;24.70;99.90
34768;DHT22;21755;43.608;1.236;2023-07-24T12:05:17;24.70;99.90
34768;DHT22;21755;43.608;1.236;2023-07-24T12:07:44;24.80;99.90
34768;DHT22;21755;43.608;1.236;2023-07-24T12:10:12;24.70;1.00
34768;DHT22;21755;43.608;1.236;2023-07-24T12:12:45;24.80;99.90
34768;DHT22;21755;43.608;1.236;2023-07-24T12:15:12;24.90;1.00
34768;DHT22;21755;43.608;1.236;2023-07-24T12:17:39;24.90;99.90
34768;DHT22;21755;43.608;1.236;2023-07-24T12:20:06;25.20;99.90
34768;DHT22;21755;43.608;1.236;2023-07-24T12:22:34;25.30;99.90
34768;DHT22;21755;43.608;1.236;2023-07-24T12:25:01;25.20;99.90
34768;DHT22;21755;43.608;1.236;2023-07-24T12:27:27;25.20;81.70
34768;DHT22;21755;43.608;1.236;2023-07-24T12:29:53;25.20;99.90
34768;DHT22;21755;43.608;1.236;2023-07-24T12:32:19;25.20;99.90
34768;DHT22;21755;43.608;1.236;2023-07-24T12:34:47;25.30;50.10
34768;DHT22;21755;43.608;1.236;2023-07-24T12:37:13;25.70;99.90
34768;DHT22;21755;43.608;1.236;2023-07-24T12:39:39;25.80;99.90
34768;DHT22;21755;43.608;1.236;2023-07-24T12:42:05;26.10;99.90
34768;DHT22;21755;43.608;1.236;2023-07-24T12:44:32;26.10;40.50
34768;DHT22;21755;43.608;1.236;2023-07-24T12:46:58;26.20;1.00
34768;DHT22;21755;43.608;1.236;2023-07-24T12:49:24;26.10;99.90
34768;DHT22;21755;43.608;1.236;2023-07-24T12:51:50;26.00;99.90
34768;DHT22;21755;43.608;1.236;2023-07-24T12:54:16;25.80;99.90
34768;DHT22;21755;43.608;1.236;2023-07-24T12:56:45;25.50;99.90
34768;DHT22;21755;43.608;1.236;2023-07-24T12:59:11;25.20;1.00
34768;DHT22;21755;43.608;1.236;2023-07-24T13:01:37;24.80;99.90
34768;DHT22;21755;43.608;1.236;2023-07-24T13:04:03;24.00;1.00
34768;DHT22;21755;43.608;1.236;2023-07-24T13:06:29;23.60;99.90
34768;DHT22;21755;43.608;1.236;2023-07-24T13:08:55;23.20;99.90
34768;DHT22;21755;43.608;1.236;2023-07-24T13:11:20;22.90;1.00
34768;DHT22;21755;43.608;1.236;2023-07-24T13:13:47;22.70;1.00
34768;DHT22;21755;43.608;1.236;2023-07-24T13:16:13;22.60;1.00
34768;DHT22;21755;43.608;1.236;2023-07-24T13:18:39;22.50;1.00
34768;DHT22;21755;43.608;1.236;2023-07-24T13:21:05;22.50;1.00
34768;DHT22;21755;43.608;1.236;2023-07-24T13:23:32;22.50;1.00
34768;DHT22;21755;43.608;1.236;2023-07-24T13:25:58;22.40;7.50
34768;DHT22;21755;43.608;1.236;2023-07-24T13:28:24;22.40;11.20
34768;DHT22;21755;43.608;1.236;2023-07-24T13:30:50;22.40;10.20
34768;DHT22;21755;43.608;1.236;2023-07-24T13:33:16;22.30;1.00
34768;DHT22;21755;43.608;1.236;2023-07-24T13:35:42;22.30;1.00
34768;DHT22;21755;43.608;1.236;2023-07-24T13:38:08;22.40;1.00
34768;DHT22;21755;43.608;1.236;2023-07-24T13:40:34;22.50;1.00
34768;DHT22;21755;43.608;1.236;2023-07-24T13:43:00;22.60;1.00
34768;DHT22;21755;43.608;1.236;2023-07-24T13:45:28;22.80;1.00
34768;DHT22;21755;43.608;1.236;2023-07-24T13:47:57;23.00;1.00
34768;DHT22;21755;43.608;1.236;2023-07-24T13:50:27;23.00;1.00
34768;DHT22;21755;43.608;1.236;2023-07-24T13:52:53;23.00;99.90
34768;DHT22;21755;43.608;1.236;2023-07-24T13:55:19;23.00;1.00
34768;DHT22;21755;43.608;1.236;2023-07-24T13:57:45;23.10;99.90
34768;DHT22;21755;43.608;1.236;2023-07-24T14:00:11;23.20;99.90
34768;DHT22;21755;43.608;1.236;2023-07-24T14:02:37;23.40;99.90
34768;DHT22;21755;43.608;1.236;2023-07-24T14:05:04;23.60;99.90
34768;DHT22;21755;43.608;1.236;2023-07-24T14:07:30;23.80;42.00
34768;DHT22;21755;43.608;1.236;2023-07-24T14:09:55;23.90;1.00
34768;DHT22;21755;43.608;1.236;2023-07-24T14:12:22;24.00;1.00
34768;DHT22;21755;43.608;1.236;2023-07-24T14:14:47;24.00;1.00
34768;DHT22;21755;43.608;1.236;2023-07-24T14:17:13;24.10;1.00
34768;DHT22;21755;43.608;1.236;2023-07-24T14:19:40;23.90;1.00
34768;DHT22;21755;43.608;1.236;2023-07-24T14:22:06;23.80;1.00
34768;DHT22;21755;43.608;1.236;2023-07-24T14:24:32;23.80;1.00
34768;DHT22;21755;43.608;1.236;2023-07-24T14:26:58;23.80;1.00
34768;DHT22;21755;43.608;1.236;2023-07-24T14:29:24;23.70;1.00
34768;DHT22;21755;43.608;1.236;2023-07-24T14:31:50;23.80;42.80
34768;DHT22;21755;43.608;1.236;2023-07-24T14:34:16;23.80;1.00
34768;DHT22;21755;43.608;1.236;2023-07-24T14:36:41;23.80;1.00
34768;DHT22;21755;43.608;1.236;2023-07-24T14:39:07;23.70;1.00
34768;DHT22;21755;43.608;1.236;2023-07-24T14:41:34;23.50;1.00
34768;DHT22;21755;43.608;1.236;2023-07-24T14:44:00;23.60;1.00
34768;DHT22;21755;43.608;1.236;2023-07-24T14:46:26;23.60;1.00
34768;DHT22;21755;43.608;1.236;2023-07-24T14:48:52;23.70;99.90
34768;DHT22;21755;43.608;1.236;2023-07-24T14:51:18;23.70;99.90
34768;DHT22;21755;43.608;1.236;2023-07-24T14:53:44;23.70;1.00
34768;DHT22;21755;43.608;1.236;2023-07-24T14:56:09;23.80;99.90
34768;DHT22;21755;43.608;1.236;2023-07-24T14:58:35;23.80;99.90
34768;DHT22;21755;43.608;1.236;2023-07-24T15:01:01;23.80;38.40
34768;DHT22;21755;43.608;1.236;2023-07-24T15:03:28;23.80;99.90
34768;DHT22;21755;43.608;1.236;2023-07-24T15:05:54;23.70;99.90
34768;DHT22;21755;43.608;1.236;2023-07-24T15:08:21;23.70;71.30
34768;DHT22;21755;43.608;1.236;2023-07-24T15:10:48;23.70;99.90
34768;DHT22;21755;43.608;1.236;2023-07-24T15:13:14;23.60;1.00
34768;DHT22;21755;43.608;1.236;2023-07-24T15:15:40;23.50;5.20
34768;DHT22;21755;43.608;1.236;2023-07-24T15:18:05;23.50;99.90
34768;DHT22;21755;43.608;1.236;2023-07-24T15:20:32;23.50;50.50
34768;DHT22;21755;43.608;1.236;2023-07-24T15:22:58;23.40;99.90
34768;DHT22;21755;43.608;1.236;2023-07-24T15:25:24;23.30;99.90
34768;DHT22;21755;43.608;1.236;2023-07-24T15:27:50;23.30;1.00
34768;DHT22;21755;43.608;1.236;2023-07-24T15:30:16;23.30;1.00
34768;DHT22;21755;43.608;1.236;2023-07-24T15:32:42;23.20;27.70
34768;DHT22;21755;43.608;1.236;2023-07-24T15:35:08;23.10;99.90
34768;DHT22;21755;43.608;1.236;2023-07-24T15:37:35;23.10;99.90
34768;DHT22;21755;43.608;1.236;2023-07-24T15:40:01;23.10;40.90
34768;DHT22;21755;43.608;1.236;2023-07-24T15:42:27;23.00;99.90